createdAt,value
2022-07-30T00:00:24.778Z,101546.91
2022-07-30T00:03:15.343Z,101551.25
2022-07-30T00:05:57.311Z,101546.91
2022-07-30T00:08:45.269Z,101541.63
2022-07-30T00:11:29.408Z,101539.03
2022-07-30T00:14:19.880Z,101537.97
2022-07-30T00:17:01.338Z,101531.91
2022-07-30T00:19:48.354Z,101521.22
2022-07-30T00:22:29.538Z,101532.03
2022-07-30T00:25:21.768Z,101533.06
2022-07-30T00:28:02.198Z,101534.16
2022-07-30T00:30:54.926Z,101540.41
2022-07-30T00:33:38.299Z,101534.94
2022-07-30T00:36:27.498Z,101536.72
2022-07-30T00:39:10.455Z,101533.31
2022-07-30T00:42:07.291Z,101535.84
2022-07-30T00:45:04.005Z,101541.25
2022-07-30T00:47:51.776Z,101528.94
2022-07-30T00:50:32.179Z,101522.84
2022-07-30T00:53:19.275Z,101532.50
2022-07-30T00:56:01.231Z,101530.81
2022-07-30T00:58:48.318Z,101528.22
2022-07-30T01:01:29.184Z,101520.22
2022-07-30T01:04:17.380Z,101522.09
2022-07-30T01:06:58.554Z,101519.44
2022-07-30T01:09:48.557Z,101516.91
2022-07-30T01:12:33.284Z,101518.53
2022-07-30T01:15:20.294Z,101525.66
2022-07-30T01:18:04.220Z,101522.06
2022-07-30T01:21:04.361Z,101527.56
2022-07-30T01:23:48.499Z,101528.47
2022-07-30T01:26:37.323Z,101528.63
2022-07-30T01:29:20.605Z,101515.13
2022-07-30T01:32:15.147Z,101514.22
2022-07-30T01:34:57.187Z,101511.53
2022-07-30T01:37:45.601Z,101508.91
2022-07-30T01:40:28.611Z,101514.56
2022-07-30T01:43:17.092Z,101501.31
2022-07-30T01:46:07.410Z,101505.84
2022-07-30T01:48:50.417Z,101502.41
2022-07-30T01:51:39.203Z,101503.16
2022-07-30T01:54:21.923Z,101498.66
2022-07-30T01:57:13.169Z,101498.03
2022-07-30T01:59:58.333Z,101504.16
2022-07-30T02:02:57.679Z,101509.38
2022-07-30T02:05:41.751Z,101509.44
2022-07-30T02:08:43.816Z,101511.31
2022-07-30T02:11:44.879Z,101509.56
2022-07-30T02:14:38.380Z,101509.84
2022-07-30T02:17:30.056Z,101507.97
2022-07-30T02:20:20.216Z,101509.66
2022-07-30T02:23:13.334Z,101508.00
2022-07-30T02:26:04.254Z,101512.47
2022-07-30T02:28:51.498Z,101506.47
2022-07-30T02:31:42.252Z,101502.09
2022-07-30T02:34:26.391Z,101511.84
2022-07-30T02:37:21.107Z,101509.22
2022-07-30T02:40:26.141Z,101509.31
2022-07-30T02:43:15.629Z,101508.47
2022-07-30T02:46:04.354Z,101501.44
2022-07-30T02:49:05.326Z,101507.53
2022-07-30T02:51:56.416Z,101511.06
2022-07-30T02:54:39.282Z,101510.97
2022-07-30T02:57:28.385Z,101515.34
2022-07-30T03:00:11.265Z,101517.03
2022-07-30T03:03:02.180Z,101517.81
2022-07-30T03:05:46.533Z,101518.78
2022-07-30T03:08:35.370Z,101519.59
2022-07-30T03:11:18.253Z,101525.84
2022-07-30T03:14:11.206Z,101527.47
2022-07-30T03:16:58.460Z,101531.13
2022-07-30T03:19:48.869Z,101535.53
2022-07-30T03:22:35.829Z,101535.34
2022-07-30T03:25:29.647Z,101538.91
2022-07-30T03:28:12.260Z,101536.19
2022-07-30T03:31:01.730Z,101527.41
2022-07-30T03:33:46.673Z,101528.94
2022-07-30T03:36:36.839Z,101529.81
2022-07-30T03:39:18.870Z,101523.94
2022-07-30T03:42:07.436Z,101519.22
2022-07-30T03:44:57.804Z,101522.06
2022-07-30T03:47:42.125Z,101522.13
2022-07-30T03:50:29.327Z,101520.53
2022-07-30T03:53:11.470Z,101524.53
2022-07-30T03:56:28.419Z,101518.56
2022-07-30T03:59:29.465Z,101519.44
2022-07-30T04:02:17.353Z,101518.88
2022-07-30T04:05:11.439Z,101513.69
2022-07-30T04:08:01.363Z,101515.44
2022-07-30T04:10:44.834Z,101521.56
2022-07-30T04:13:57.359Z,101519.13
2022-07-30T04:17:06.460Z,101521.91
2022-07-30T04:20:00.317Z,101527.84
2022-07-30T04:22:44.483Z,101526.19
2022-07-30T04:25:33.114Z,101527.94
2022-07-30T04:28:17.425Z,101528.84
2022-07-30T04:31:05.921Z,101535.06
2022-07-30T04:33:48.044Z,101538.50
2022-07-30T04:36:45.282Z,101532.44
2022-07-30T04:39:26.663Z,101536.00
2022-07-30T04:42:16.450Z,101532.47
2022-07-30T04:45:21.315Z,101537.88
2022-07-30T04:48:11.311Z,101537.63
2022-07-30T04:51:20.451Z,101538.56
2022-07-30T04:54:16.294Z,101549.13
2022-07-30T04:56:58.579Z,101541.19
2022-07-30T04:59:46.321Z,101548.09
2022-07-30T05:02:32.420Z,101544.19
2022-07-30T05:05:23.514Z,101543.66
2022-07-30T05:08:06.623Z,101548.19
2022-07-30T05:10:58.875Z,101546.34
2022-07-30T05:13:39.457Z,101545.34
2022-07-30T05:16:31.393Z,101548.66
2022-07-30T05:19:12.506Z,101552.72
2022-07-30T05:22:04.679Z,101555.97
2022-07-30T05:24:48.845Z,101560.94
2022-07-30T05:27:41.350Z,101567.88
2022-07-30T05:30:27.511Z,101570.22
2022-07-30T05:33:15.785Z,101558.44
2022-07-30T05:36:00.214Z,101565.63
2022-07-30T05:38:57.726Z,101566.19
2022-07-30T05:41:44.806Z,101561.09
2022-07-30T05:44:36.347Z,101569.28
2022-07-30T05:47:20.960Z,101566.94
2022-07-30T05:50:10.381Z,101570.44
2022-07-30T05:52:51.691Z,101570.22
2022-07-30T05:56:06.743Z,101570.00
2022-07-30T05:59:22.491Z,101573.72
2022-07-30T06:02:15.385Z,101583.44
2022-07-30T06:05:00.749Z,101589.56
2022-07-30T06:07:47.375Z,101588.25
2022-07-30T06:10:31.230Z,101584.66
2022-07-30T06:13:20.353Z,101587.06
2022-07-30T06:16:01.550Z,101585.84
2022-07-30T06:18:52.399Z,101583.28
2022-07-30T06:22:06.372Z,101593.09
2022-07-30T06:24:58.742Z,101595.56
2022-07-30T06:27:39.958Z,101594.06
2022-07-30T06:30:30.591Z,101580.69
2022-07-30T06:33:14.472Z,101584.09
2022-07-30T06:36:03.158Z,101582.47
2022-07-30T06:38:55.918Z,101584.44
2022-07-30T06:42:04.565Z,101582.50
2022-07-30T06:45:30.529Z,101587.94
2022-07-30T06:48:24.781Z,101585.13
2022-07-30T06:51:16.025Z,101579.13
2022-07-30T06:53:57.166Z,101579.84
2022-07-30T06:56:43.859Z,101575.31
2022-07-30T06:59:31.397Z,101577.69
2022-07-30T07:02:26.239Z,101581.44
2022-07-30T07:05:25.409Z,101582.06
2022-07-30T07:08:13.538Z,101581.63
2022-07-30T07:10:58.807Z,101587.88
2022-07-30T07:13:48.198Z,101582.72
2022-07-30T07:16:50.277Z,101578.56
2022-07-30T07:20:02.618Z,101585.84
2022-07-30T07:22:58.449Z,101592.84
2022-07-30T07:25:48.513Z,101591.44
2022-07-30T07:28:33.352Z,101597.97
2022-07-30T07:32:07.071Z,101588.88
2022-07-30T07:34:24.903Z,101583.72
2022-07-30T07:37:16.804Z,101583.81
2022-07-30T07:39:58.445Z,101588.44
2022-07-30T07:43:04.417Z,101586.44
2022-07-30T07:46:01.195Z,101593.03
2022-07-30T07:48:51.862Z,101598.69
2022-07-30T07:51:48.168Z,101603.94
2022-07-30T07:54:40.343Z,101610.19
2022-07-30T07:57:21.913Z,101615.34
2022-07-30T08:00:12.819Z,101617.25
2022-07-30T08:02:54.539Z,101619.06
2022-07-30T08:05:58.118Z,101623.19
2022-07-30T08:09:08.431Z,101631.44
2022-07-30T08:12:09.881Z,101625.50
2022-07-30T08:15:04.439Z,101633.53
2022-07-30T08:18:04.003Z,101631.09
2022-07-30T08:21:23.741Z,101641.19
2022-07-30T08:24:14.544Z,101638.31
2022-07-30T08:26:55.452Z,101636.50
2022-07-30T08:29:42.625Z,101623.72
2022-07-30T08:32:23.522Z,101627.50
2022-07-30T08:35:15.304Z,101633.59
2022-07-30T08:37:57.595Z,101629.63
2022-07-30T08:40:46.759Z,101628.38
2022-07-30T08:43:32.633Z,101621.88
2022-07-30T08:46:25.492Z,101621.22
2022-07-30T08:49:22.479Z,101619.63
2022-07-30T08:52:12.622Z,101616.09
2022-07-30T08:55:03.234Z,101626.28
2022-07-30T08:57:56.646Z,101628.63
2022-07-30T09:00:38.842Z,101624.00
2022-07-30T09:03:26.572Z,101628.00
2022-07-30T09:06:11.263Z,101635.72
2022-07-30T09:09:01.455Z,101634.25
2022-07-30T09:11:43.529Z,101646.03
2022-07-30T09:14:31.584Z,101642.09
2022-07-30T09:17:14.295Z,101648.84
2022-07-30T09:20:10.661Z,101655.59
2022-07-30T09:22:55.472Z,101643.91
2022-07-30T09:25:57.078Z,101644.16
2022-07-30T09:28:59.479Z,101640.94
2022-07-30T09:32:06.076Z,101644.41
2022-07-30T09:35:27.883Z,101643.34
2022-07-30T09:38:49.099Z,101646.25
2022-07-30T09:42:04.116Z,101641.91
2022-07-30T09:44:58.612Z,101640.66
2022-07-30T09:47:50.243Z,101638.53
2022-07-30T09:50:31.682Z,101644.38
2022-07-30T09:53:19.554Z,101642.97
2022-07-30T09:56:02.673Z,101641.03
2022-07-30T09:58:52.288Z,101641.16
2022-07-30T10:01:49.746Z,101647.56
2022-07-30T10:05:20.904Z,101642.13
2022-07-30T10:08:09.504Z,101633.94
2022-07-30T10:11:08.414Z,101641.31
2022-07-30T10:13:49.993Z,101637.41
2022-07-30T10:16:37.905Z,101632.41
2022-07-30T10:19:23.520Z,101635.78
2022-07-30T10:22:48.066Z,101630.59
2022-07-30T10:26:08.081Z,101618.66
2022-07-30T10:28:58.537Z,101620.44
2022-07-30T10:31:49.363Z,101622.16
2022-07-30T10:34:42.459Z,101617.84
2022-07-30T10:37:24.130Z,101616.22
2022-07-30T10:40:30.690Z,101618.75
2022-07-30T10:43:31.574Z,101622.16
2022-07-30T10:46:57.303Z,101619.75
2022-07-30T10:49:41.890Z,101621.69
2022-07-30T10:52:56.577Z,101624.69
2022-07-30T10:55:41.672Z,101618.75
2022-07-30T10:58:29.990Z,101609.97
2022-07-30T11:01:18.837Z,101611.56
2022-07-30T11:04:33.629Z,101610.72
2022-07-30T11:07:31.569Z,101602.25
2022-07-30T11:10:43.833Z,101609.78
2022-07-30T11:13:25.427Z,101607.19
2022-07-30T11:16:14.339Z,101602.91
2022-07-30T11:19:56.620Z,101599.94
2022-07-30T11:22:51.040Z,101599.56
2022-07-30T11:25:50.093Z,101608.19
2022-07-30T11:28:43.957Z,101600.00
2022-07-30T11:31:56.832Z,101602.41
2022-07-30T11:34:51.601Z,101604.69
2022-07-30T11:37:33.072Z,101599.38
2022-07-30T11:40:26.478Z,101601.34
2022-07-30T11:43:34.850Z,101590.88
2022-07-30T11:46:30.020Z,101594.88
2022-07-30T11:49:15.731Z,101592.44
2022-07-30T11:52:04.140Z,101593.28
2022-07-30T11:54:59.890Z,101586.84
2022-07-30T11:57:49.732Z,101585.47
2022-07-30T12:00:31.635Z,101586.81
2022-07-30T12:03:21.583Z,101583.25
2022-07-30T12:06:02.712Z,101584.25
2022-07-30T12:08:58.523Z,101592.50
2022-07-30T12:11:43.752Z,101578.31
2022-07-30T12:14:31.817Z,101580.81
2022-07-30T12:17:14.895Z,101579.22
2022-07-30T12:20:04.119Z,101573.09
2022-07-30T12:22:47.415Z,101573.19
2022-07-30T12:25:36.352Z,101574.81
2022-07-30T12:28:18.761Z,101576.00
2022-07-30T12:31:11.000Z,101576.03
2022-07-30T12:33:51.889Z,101562.03
2022-07-30T12:36:44.252Z,101572.53
2022-07-30T12:39:29.745Z,101566.69
2022-07-30T12:42:27.636Z,101565.66
2022-07-30T12:45:50.447Z,101568.03
2022-07-30T12:48:38.670Z,101566.78
2022-07-30T12:51:19.858Z,101563.53
2022-07-30T12:54:22.641Z,101564.28
2022-07-30T12:57:06.373Z,101563.25
2022-07-30T13:00:07.381Z,101550.66
2022-07-30T13:02:48.739Z,101552.22
2022-07-30T13:05:58.637Z,101551.72
2022-07-30T13:08:55.107Z,101534.41
2022-07-30T13:11:49.668Z,101544.97
2022-07-30T13:14:30.754Z,101553.19
2022-07-30T13:19:43.752Z,101543.78
2022-07-30T13:22:32.016Z,101548.44
2022-07-30T13:25:13.382Z,101542.28
2022-07-30T13:28:00.867Z,101542.13
2022-07-30T13:30:41.760Z,101530.13
2022-07-30T13:33:28.906Z,101534.75
2022-07-30T13:36:09.788Z,101530.53
2022-07-30T13:38:57.911Z,101530.06
2022-07-30T13:41:41.614Z,101524.78
2022-07-30T13:44:28.940Z,101530.25
2022-07-30T13:47:11.174Z,101527.50
2022-07-30T13:49:58.912Z,101530.44
2022-07-30T13:52:40.519Z,101538.91
2022-07-30T13:55:29.919Z,101519.28
2022-07-30T13:58:11.247Z,101517.59
2022-07-30T14:00:58.113Z,101515.69
2022-07-30T14:03:39.217Z,101516.75
2022-07-30T14:06:26.914Z,101517.66
2022-07-30T14:09:08.148Z,101512.13
2022-07-30T14:11:55.891Z,101508.03
2022-07-30T14:14:39.276Z,101510.31
2022-07-30T14:17:33.808Z,101502.38
2022-07-30T14:20:20.781Z,101503.47
2022-07-30T14:23:01.919Z,101505.91
2022-07-30T14:25:51.556Z,101503.53
2022-07-30T14:28:33.366Z,101514.88
2022-07-30T14:31:20.569Z,101508.63
2022-07-30T14:34:01.919Z,101502.34
2022-07-30T14:36:51.642Z,101495.97
2022-07-30T14:39:33.104Z,101493.13
2022-07-30T14:42:20.577Z,101485.03
2022-07-30T14:45:02.005Z,101481.84
2022-07-30T14:47:51.961Z,101492.22
2022-07-30T14:50:39.414Z,101483.19
2022-07-30T14:53:39.867Z,101484.34
2022-07-30T14:56:22.253Z,101482.50
2022-07-30T14:59:11.346Z,101481.66
2022-07-30T15:01:53.129Z,101473.50
2022-07-30T15:04:40.805Z,101480.41
2022-07-30T15:07:22.055Z,101480.03
2022-07-30T15:10:10.834Z,101474.81
2022-07-30T15:12:56.246Z,101466.91
2022-07-30T15:15:44.541Z,101478.94
2022-07-30T15:18:39.808Z,101473.22
2022-07-30T15:21:29.266Z,101477.50
2022-07-30T15:24:10.816Z,101472.56
2022-07-30T15:26:57.943Z,101476.38
2022-07-30T15:29:38.951Z,101483.34
2022-07-30T15:32:26.827Z,101471.91
2022-07-30T15:35:13.848Z,101479.47
2022-07-30T15:38:01.301Z,101480.13
2022-07-30T15:40:42.409Z,101479.81
2022-07-30T15:43:30.229Z,101482.16
2022-07-30T15:46:15.003Z,101479.28
2022-07-30T15:49:04.960Z,101467.63
2022-07-30T15:51:48.988Z,101479.13
2022-07-30T15:54:36.961Z,101479.72
2022-07-30T15:57:19.337Z,101473.56
2022-07-30T16:00:06.245Z,101467.94
2022-07-30T16:02:50.542Z,101478.09
2022-07-30T16:05:52.555Z,101471.88
2022-07-30T16:08:41.971Z,101470.31
2022-07-30T16:11:22.873Z,101470.31
2022-07-30T16:14:10.999Z,101472.06
2022-07-30T16:16:51.874Z,101467.34
2022-07-30T16:19:47.879Z,101467.91
2022-07-30T16:22:35.258Z,101465.44
2022-07-30T16:25:17.095Z,101475.72
2022-07-30T16:28:06.055Z,101465.34
2022-07-30T16:30:51.212Z,101463.88
2022-07-30T16:33:40.873Z,101464.16
2022-07-30T16:36:21.983Z,101461.34
2022-07-30T16:39:10.889Z,101463.44
2022-07-30T16:41:52.896Z,101467.06
2022-07-30T16:44:42.236Z,101470.16
2022-07-30T16:47:23.338Z,101458.56
2022-07-30T16:50:10.724Z,101471.94
2022-07-30T16:52:52.537Z,101467.50
2022-07-30T16:55:39.882Z,101454.66
2022-07-30T16:58:21.363Z,101470.19
2022-07-30T17:01:14.925Z,101469.69
2022-07-30T17:03:56.813Z,101471.41
2022-07-30T17:06:46.894Z,101467.00
2022-07-30T17:09:28.037Z,101472.22
2022-07-30T17:12:23.943Z,101470.94
2022-07-30T17:15:07.470Z,101470.59
2022-07-30T17:17:56.653Z,101461.47
2022-07-30T17:20:45.010Z,101458.72
2022-07-30T17:23:26.888Z,101476.69
2022-07-30T17:26:14.668Z,101460.03
2022-07-30T17:28:56.668Z,101460.34
2022-07-30T17:31:45.046Z,101468.84
2022-07-30T17:34:28.909Z,101457.72
2022-07-30T17:37:18.429Z,101460.91
2022-07-30T17:40:26.446Z,101462.69
2022-07-30T17:43:14.021Z,101461.56
2022-07-30T17:45:54.922Z,101465.03
2022-07-30T17:48:42.039Z,101468.50
2022-07-30T17:51:24.692Z,101464.81
2022-07-30T17:54:14.043Z,101473.06
2022-07-30T17:56:55.937Z,101472.06
2022-07-30T17:59:43.849Z,101477.63
2022-07-30T18:02:27.473Z,101474.47
2022-07-30T18:05:18.103Z,101484.19
2022-07-30T18:07:59.291Z,101484.09
2022-07-30T18:10:47.643Z,101484.31
2022-07-30T18:13:29.065Z,101481.13
2022-07-30T18:16:19.067Z,101480.69
2022-07-30T18:19:22.772Z,101479.75
2022-07-30T18:22:15.267Z,101487.72
2022-07-30T18:24:56.336Z,101485.31
2022-07-30T18:27:44.071Z,101496.44
2022-07-30T18:30:25.769Z,101499.53
2022-07-30T18:33:16.297Z,101496.84
2022-07-30T18:35:56.951Z,101502.22
2022-07-30T18:38:49.705Z,101504.44
2022-07-30T18:41:33.956Z,101509.78
2022-07-30T18:44:25.080Z,101510.00
2022-07-30T18:47:06.338Z,101521.16
2022-07-30T18:49:56.096Z,101532.28
2022-07-30T18:52:37.975Z,101524.59
2022-07-30T18:55:25.334Z,101534.97
2022-07-30T18:58:05.983Z,101536.28
2022-07-30T19:00:54.172Z,101540.22
2022-07-30T19:03:35.382Z,101545.75
2022-07-30T19:06:23.450Z,101544.50
2022-07-30T19:09:05.385Z,101550.69
2022-07-30T19:11:53.202Z,101557.09
2022-07-30T19:14:33.975Z,101548.34
2022-07-30T19:17:22.622Z,101542.66
2022-07-30T19:20:31.739Z,101547.41
2022-07-30T19:23:16.499Z,101545.03
2022-07-30T19:26:05.191Z,101555.16
2022-07-30T19:28:46.563Z,101567.84
2022-07-30T19:31:34.351Z,101552.38
2022-07-30T19:34:15.116Z,101562.38
2022-07-30T19:37:03.875Z,101561.84
2022-07-30T19:40:05.624Z,101562.59
2022-07-30T19:45:58.594Z,101568.97
2022-07-30T19:48:48.423Z,101570.69
2022-07-30T19:52:07.282Z,101574.94
2022-07-30T19:54:37.992Z,101583.25
2022-07-30T20:00:29.003Z,101585.34
2022-07-30T20:03:14.618Z,101588.22
2022-07-30T20:06:03.120Z,101604.00
2022-07-30T20:08:46.201Z,101608.84
2022-07-30T20:11:36.607Z,101613.34
2022-07-30T20:14:17.730Z,101607.78
2022-07-30T20:17:05.467Z,101614.78
2022-07-30T20:20:02.043Z,101614.00
2022-07-30T20:22:52.111Z,101622.19
2022-07-30T20:25:37.355Z,101635.59
2022-07-30T20:28:25.992Z,101633.47
2022-07-30T20:31:07.171Z,101635.72
2022-07-30T20:33:55.796Z,101631.03
2022-07-30T20:36:37.600Z,101639.63
2022-07-30T20:39:26.046Z,101646.41
2022-07-30T20:42:14.033Z,101658.78
2022-07-30T20:45:04.763Z,101665.22
2022-07-30T20:47:52.324Z,101670.94
2022-07-30T20:50:40.782Z,101669.56
2022-07-30T20:53:23.166Z,101676.72
2022-07-30T20:56:11.026Z,101675.22
2022-07-30T20:58:54.807Z,101682.66
2022-07-30T21:01:44.582Z,101686.13
2022-07-30T21:04:25.860Z,101689.03
2022-07-30T21:07:20.569Z,101689.03
2022-07-30T21:10:02.899Z,101693.09
2022-07-30T21:12:53.037Z,101687.38
2022-07-30T21:15:45.601Z,101695.25
2022-07-30T21:18:53.348Z,101697.81
2022-07-30T21:21:48.158Z,101699.22
2022-07-30T21:24:31.028Z,101702.28
2022-07-30T21:27:20.567Z,101695.28
2022-07-30T21:30:01.807Z,101689.09
2022-07-30T21:32:50.588Z,101698.19
2022-07-30T21:35:32.475Z,101693.94
2022-07-30T21:38:20.164Z,101691.53
2022-07-30T21:41:04.804Z,101688.56
2022-07-30T21:44:00.117Z,101688.75
2022-07-30T21:46:41.817Z,101691.00
2022-07-30T21:49:29.243Z,101687.53
2022-07-30T21:52:13.437Z,101700.53
2022-07-30T21:55:04.836Z,101703.41
2022-07-30T21:57:46.101Z,101705.22
2022-07-30T22:00:55.062Z,101696.53
2022-07-30T22:04:04.311Z,101698.25
2022-07-30T22:06:49.359Z,101690.81
2022-07-30T22:09:34.192Z,101704.25
2022-07-30T22:12:21.383Z,101694.44
2022-07-30T22:15:08.061Z,101692.63
2022-07-30T22:17:58.655Z,101689.13
2022-07-30T22:20:52.081Z,101690.97
2022-07-30T22:23:33.192Z,101690.81
2022-07-30T22:26:22.218Z,101683.69
2022-07-30T22:29:09.712Z,101690.34
2022-07-30T22:31:59.086Z,101686.72
2022-07-30T22:34:40.174Z,101691.16
2022-07-30T22:37:34.043Z,101686.44
2022-07-30T22:40:16.604Z,101692.13
2022-07-30T22:43:07.625Z,101686.06
2022-07-30T22:45:50.158Z,101683.50
2022-07-30T22:48:40.230Z,101689.75
2022-07-30T22:51:21.412Z,101689.38
2022-07-30T22:54:13.336Z,101684.94
2022-07-30T22:56:54.332Z,101681.13
2022-07-30T22:59:58.682Z,101683.94
2022-07-30T23:02:41.276Z,101683.34
2022-07-30T23:05:30.129Z,101685.13
2022-07-30T23:08:16.718Z,101687.06
2022-07-30T23:11:20.002Z,101685.34
2022-07-30T23:12:15.501Z,101580.72
2022-07-30T23:12:16.670Z,101556.84
2022-07-30T23:14:02.404Z,101688.16
2022-07-30T23:16:51.260Z,101683.50
2022-07-30T23:19:46.118Z,101692.84
2022-07-30T23:22:33.516Z,101687.69
2022-07-30T23:25:16.231Z,101689.09
2022-07-30T23:28:04.092Z,101691.59
2022-07-30T23:30:45.255Z,101693.84
2022-07-30T23:33:32.120Z,101697.44
2022-07-30T23:36:16.066Z,101694.72
2022-07-30T23:39:06.427Z,101696.69
2022-07-30T23:41:47.250Z,101704.66
2022-07-30T23:44:37.175Z,101699.19
2022-07-30T23:47:19.781Z,101703.81
2022-07-30T23:50:27.628Z,101693.09
2022-07-30T23:53:10.232Z,101697.50
2022-07-30T23:55:59.465Z,101686.84
2022-07-30T23:58:42.431Z,101683.50
